ADDS METAR Data INFO
IDs: Format: Raw Decoded Include TAF

Data at: 0751 UTC 17 Oct 2017

KA08 162120Z AUTO 02009G16KT 10SM CLR 20/10 A3011 RMK AO2 T02030097
KA08 162055Z AUTO 36013G18KT 310V010 10SM CLR 20/10 A3011 RMK AO2 T02040100
KA08 162030Z AUTO 02009G15KT 10SM CLR 21/10 A3011 RMK AO2 T02060095
KA08 162015Z AUTO 36012G17KT 10SM CLR 20/10 A3011 RMK AO2 T02040096
KA08 161955Z AUTO 35012G17KT 10SM CLR 21/10 A3012 RMK AO2 T02060104
KA08 161935Z AUTO 35011G19KT 10SM CLR 20/10 A3012 RMK AO2 T02010103
KA08 161915Z AUTO 34015KT 10SM CLR 20/11 A3013 RMK AO2 T02020109
KA08 161855Z AUTO 34013G16KT 10SM CLR 20/09 A3013 RMK AO2 T01950093
KA08 161835Z AUTO 34011G15KT 10SM CLR 20/10 A3014 RMK AO2 T01950102
KA08 161200Z AUTO 34007KT 320V020 10SM OVC008 14/13 A3015 RMK AO2 T01350126
KA08 160935Z AUTO 36007KT 5SM RA BKN006 BKN016 OVC025 16/16 A3009 RMK AO2 P0031 T01620161
KA08 152015Z AUTO 34004KT 10SM BKN031 BKN042 OVC095 28/22 A3003 RMK AO2 T02830223
KA08 151955Z AUTO 01004KT 10SM OVC031 29/22 A3004 RMK AO2 T02890224